sensor_id;sensor_type;location;lat;lon;timestamp;temperature;humidity
11385;DHT22;5747;56.748;13.882;2023-07-31T00:00:13;11.80;99.90
11385;DHT22;5747;56.748;13.882;2023-07-31T00:02:41;11.80;99.90
11385;DHT22;5747;56.748;13.882;2023-07-31T00:05:11;11.70;99.90
11385;DHT22;5747;56.748;13.882;2023-07-31T00:07:39;11.50;99.90
11385;DHT22;5747;56.748;13.882;2023-07-31T00:10:08;11.40;99.90
11385;DHT22;5747;56.748;13.882;2023-07-31T00:12:37;11.50;99.90
11385;DHT22;5747;56.748;13.882;2023-07-31T00:15:06;11.50;99.90
11385;DHT22;5747;56.748;13.882;2023-07-31T00:17:34;11.60;99.90
11385;DHT22;5747;56.748;13.882;2023-07-31T00:20:03;11.60;99.90
11385;DHT22;5747;56.748;13.882;2023-07-31T00:22:33;11.60;99.90
11385;DHT22;5747;56.748;13.882;2023-07-31T00:25:01;11.60;99.90
11385;DHT22;5747;56.748;13.882;2023-07-31T00:27:29;11.70;99.90
11385;DHT22;5747;56.748;13.882;2023-07-31T00:29:57;11.70;99.90
11385;DHT22;5747;56.748;13.882;2023-07-31T00:32:25;11.80;99.90
11385;DHT22;5747;56.748;13.882;2023-07-31T00:34:53;11.80;99.90
11385;DHT22;5747;56.748;13.882;2023-07-31T00:37:22;11.80;99.90
11385;DHT22;5747;56.748;13.882;2023-07-31T00:39:52;11.70;99.90
11385;DHT22;5747;56.748;13.882;2023-07-31T00:42:20;11.60;99.90
11385;DHT22;5747;56.748;13.882;2023-07-31T00:44:48;11.70;99.90
11385;DHT22;5747;56.748;13.882;2023-07-31T00:47:17;11.80;99.90
11385;DHT22;5747;56.748;13.882;2023-07-31T00:49:45;11.80;99.90
11385;DHT22;5747;56.748;13.882;2023-07-31T00:52:14;11.80;99.90
11385;DHT22;5747;56.748;13.882;2023-07-31T00:54:42;11.90;99.90
11385;DHT22;5747;56.748;13.882;2023-07-31T00:57:11;11.90;99.90
11385;DHT22;5747;56.748;13.882;2023-07-31T00:59:40;12.00;99.90
11385;DHT22;5747;56.748;13.882;2023-07-31T01:02:08;12.10;99.90
11385;DHT22;5747;56.748;13.882;2023-07-31T01:04:36;12.10;99.90
11385;DHT22;5747;56.748;13.882;2023-07-31T01:07:08;12.10;99.90
11385;DHT22;5747;56.748;13.882;2023-07-31T01:09:47;11.90;99.90
11385;DHT22;5747;56.748;13.882;2023-07-31T01:12:20;11.80;99.90
11385;DHT22;5747;56.748;13.882;2023-07-31T01:15:02;11.70;99.90
11385;DHT22;5747;56.748;13.882;2023-07-31T01:17:30;11.50;99.90
11385;DHT22;5747;56.748;13.882;2023-07-31T01:20:01;11.30;99.90
11385;DHT22;5747;56.748;13.882;2023-07-31T01:22:53;11.20;99.90
11385;DHT22;5747;56.748;13.882;2023-07-31T01:25:48;11.10;99.90
11385;DHT22;5747;56.748;13.882;2023-07-31T01:28:20;11.00;99.90
11385;DHT22;5747;56.748;13.882;2023-07-31T01:30:54;10.90;99.90
11385;DHT22;5747;56.748;13.882;2023-07-31T01:33:23;10.90;99.90
11385;DHT22;5747;56.748;13.882;2023-07-31T01:35:52;10.80;99.90
11385;DHT22;5747;56.748;13.882;2023-07-31T01:38:20;10.80;99.90
11385;DHT22;5747;56.748;13.882;2023-07-31T01:40:52;10.60;99.90
11385;DHT22;5747;56.748;13.882;2023-07-31T01:43:21;10.60;99.90
11385;DHT22;5747;56.748;13.882;2023-07-31T01:45:50;10.60;99.90
11385;DHT22;5747;56.748;13.882;2023-07-31T01:48:18;10.70;99.90
11385;DHT22;5747;56.748;13.882;2023-07-31T01:50:46;10.60;99.90
11385;DHT22;5747;56.748;13.882;2023-07-31T01:53:15;10.60;99.90
11385;DHT22;5747;56.748;13.882;2023-07-31T01:55:43;10.60;99.90
11385;DHT22;5747;56.748;13.882;2023-07-31T01:58:12;10.40;99.90
11385;DHT22;5747;56.748;13.882;2023-07-31T02:00:41;10.20;99.90
11385;DHT22;5747;56.748;13.882;2023-07-31T02:03:09;10.20;99.90
11385;DHT22;5747;56.748;13.882;2023-07-31T02:05:44;10.30;99.90
11385;DHT22;5747;56.748;13.882;2023-07-31T02:08:12;10.40;99.90
11385;DHT22;5747;56.748;13.882;2023-07-31T02:10:40;10.50;99.90
11385;DHT22;5747;56.748;13.882;2023-07-31T02:13:08;10.50;99.90
11385;DHT22;5747;56.748;13.882;2023-07-31T02:15:38;10.60;99.90
11385;DHT22;5747;56.748;13.882;2023-07-31T02:18:06;10.70;99.90
11385;DHT22;5747;56.748;13.882;2023-07-31T02:20:34;10.90;99.90
11385;DHT22;5747;56.748;13.882;2023-07-31T02:23:03;11.00;99.90
11385;DHT22;5747;56.748;13.882;2023-07-31T02:25:31;11.20;99.90
11385;DHT22;5747;56.748;13.882;2023-07-31T02:27:59;11.20;99.90
11385;DHT22;5747;56.748;13.882;2023-07-31T02:30:27;11.30;99.90
11385;DHT22;5747;56.748;13.882;2023-07-31T02:32:57;11.30;99.90
11385;DHT22;5747;56.748;13.882;2023-07-31T02:35:26;11.40;99.90
11385;DHT22;5747;56.748;13.882;2023-07-31T02:37:54;11.40;99.90
11385;DHT22;5747;56.748;13.882;2023-07-31T02:40:22;11.50;99.90
11385;DHT22;5747;56.748;13.882;2023-07-31T02:42:50;11.50;99.90
11385;DHT22;5747;56.748;13.882;2023-07-31T02:45:18;11.50;99.90
11385;DHT22;5747;56.748;13.882;2023-07-31T02:47:47;11.60;99.90
11385;DHT22;5747;56.748;13.882;2023-07-31T02:50:16;11.50;99.90
11385;DHT22;5747;56.748;13.882;2023-07-31T02:52:44;11.50;99.90
11385;DHT22;5747;56.748;13.882;2023-07-31T02:55:12;11.60;99.90
11385;DHT22;5747;56.748;13.882;2023-07-31T02:57:41;11.60;99.90
11385;DHT22;5747;56.748;13.882;2023-07-31T03:00:09;11.70;99.90
11385;DHT22;5747;56.748;13.882;2023-07-31T03:02:37;11.80;99.90
11385;DHT22;5747;56.748;13.882;2023-07-31T03:05:06;11.90;99.90
11385;DHT22;5747;56.748;13.882;2023-07-31T03:07:36;11.90;99.90
11385;DHT22;5747;56.748;13.882;2023-07-31T03:10:05;11.80;99.90
11385;DHT22;5747;56.748;13.882;2023-07-31T03:12:33;11.90;99.90
11385;DHT22;5747;56.748;13.882;2023-07-31T03:15:01;12.00;99.90
11385;DHT22;5747;56.748;13.882;2023-07-31T03:17:29;12.00;99.90
11385;DHT22;5747;56.748;13.882;2023-07-31T03:19:57;12.10;99.90
11385;DHT22;5747;56.748;13.882;2023-07-31T03:22:25;12.00;99.90
11385;DHT22;5747;56.748;13.882;2023-07-31T03:24:55;11.90;99.90
11385;DHT22;5747;56.748;13.882;2023-07-31T03:27:23;11.90;99.90
11385;DHT22;5747;56.748;13.882;2023-07-31T03:29:51;12.00;99.90
11385;DHT22;5747;56.748;13.882;2023-07-31T03:32:19;12.00;99.90
11385;DHT22;5747;56.748;13.882;2023-07-31T03:34:49;12.10;99.90
11385;DHT22;5747;56.748;13.882;2023-07-31T03:37:17;12.20;99.90
11385;DHT22;5747;56.748;13.882;2023-07-31T03:39:45;12.00;99.90
11385;DHT22;5747;56.748;13.882;2023-07-31T03:42:14;12.10;99.90
11385;DHT22;5747;56.748;13.882;2023-07-31T03:44:43;12.20;99.90
11385;DHT22;5747;56.748;13.882;2023-07-31T03:47:11;12.10;99.90
11385;DHT22;5747;56.748;13.882;2023-07-31T03:49:39;12.20;99.90
11385;DHT22;5747;56.748;13.882;2023-07-31T03:52:07;12.30;99.90
11385;DHT22;5747;56.748;13.882;2023-07-31T03:54:35;12.40;99.90
11385;DHT22;5747;56.748;13.882;2023-07-31T03:57:04;12.60;99.90
11385;DHT22;5747;56.748;13.882;2023-07-31T03:59:33;12.70;99.90
11385;DHT22;5747;56.748;13.882;2023-07-31T04:02:02;12.70;99.90
11385;DHT22;5747;56.748;13.882;2023-07-31T04:04:30;12.80;99.90
11385;DHT22;5747;56.748;13.882;2023-07-31T04:07:02;12.90;99.90
11385;DHT22;5747;56.748;13.882;2023-07-31T04:09:30;13.00;99.90
11385;DHT22;5747;56.748;13.882;2023-07-31T04:11:58;13.10;99.90
11385;DHT22;5747;56.748;13.882;2023-07-31T04:14:26;13.20;99.90
11385;DHT22;5747;56.748;13.882;2023-07-31T04:16:56;13.40;99.90
11385;DHT22;5747;56.748;13.882;2023-07-31T04:19:24;13.50;99.90
11385;DHT22;5747;56.748;13.882;2023-07-31T04:21:52;13.60;99.90
11385;DHT22;5747;56.748;13.882;2023-07-31T04:24:20;13.80;99.90
11385;DHT22;5747;56.748;13.882;2023-07-31T04:26:52;13.90;99.90
11385;DHT22;5747;56.748;13.882;2023-07-31T04:29:20;14.20;99.90
11385;DHT22;5747;56.748;13.882;2023-07-31T04:31:48;14.20;99.90
11385;DHT22;5747;56.748;13.882;2023-07-31T04:34:18;14.30;99.90
11385;DHT22;5747;56.748;13.882;2023-07-31T04:36:46;14.50;99.90
11385;DHT22;5747;56.748;13.882;2023-07-31T04:39:14;14.50;99.90
11385;DHT22;5747;56.748;13.882;2023-07-31T04:41:42;14.60;99.90
11385;DHT22;5747;56.748;13.882;2023-07-31T04:44:10;14.50;99.90
11385;DHT22;5747;56.748;13.882;2023-07-31T04:46:39;14.50;99.90
11385;DHT22;5747;56.748;13.882;2023-07-31T04:49:08;14.50;99.90
11385;DHT22;5747;56.748;13.882;2023-07-31T04:51:37;14.50;99.90
11385;DHT22;5747;56.748;13.882;2023-07-31T04:54:05;14.50;99.90
11385;DHT22;5747;56.748;13.882;2023-07-31T04:56:34;14.50;99.90
11385;DHT22;5747;56.748;13.882;2023-07-31T04:59:02;14.60;99.90
11385;DHT22;5747;56.748;13.882;2023-07-31T05:01:30;14.60;99.90
11385;DHT22;5747;56.748;13.882;2023-07-31T05:03:58;14.50;99.90
11385;DHT22;5747;56.748;13.882;2023-07-31T05:06:26;14.40;99.90
11385;DHT22;5747;56.748;13.882;2023-07-31T05:08:56;14.40;99.90
11385;DHT22;5747;56.748;13.882;2023-07-31T05:11:24;14.40;99.90
11385;DHT22;5747;56.748;13.882;2023-07-31T05:13:52;15.00;99.90
11385;DHT22;5747;56.748;13.882;2023-07-31T05:16:20;15.50;99.90
11385;DHT22;5747;56.748;13.882;2023-07-31T05:18:48;15.80;99.90
11385;DHT22;5747;56.748;13.882;2023-07-31T05:21:16;15.80;99.90
11385;DHT22;5747;56.748;13.882;2023-07-31T05:23:44;15.70;99.90
11385;DHT22;5747;56.748;13.882;2023-07-31T05:26:15;15.90;99.90
11385;DHT22;5747;56.748;13.882;2023-07-31T05:28:45;16.00;99.90
11385;DHT22;5747;56.748;13.882;2023-07-31T05:31:13;16.30;99.90
11385;DHT22;5747;56.748;13.882;2023-07-31T05:33:41;16.30;99.90
11385;DHT22;5747;56.748;13.882;2023-07-31T05:36:10;16.30;99.90
11385;DHT22;5747;56.748;13.882;2023-07-31T05:38:39;16.40;99.90
11385;DHT22;5747;56.748;13.882;2023-07-31T05:41:09;16.20;99.90
11385;DHT22;5747;56.748;13.882;2023-07-31T05:43:38;16.30;99.90
11385;DHT22;5747;56.748;13.882;2023-07-31T05:46:07;16.60;99.90
11385;DHT22;5747;56.748;13.882;2023-07-31T05:48:36;16.90;99.90
11385;DHT22;5747;56.748;13.882;2023-07-31T05:51:04;16.80;99.90
11385;DHT22;5747;56.748;13.882;2023-07-31T05:53:32;16.80;99.90
11385;DHT22;5747;56.748;13.882;2023-07-31T05:56:00;16.60;99.90
11385;DHT22;5747;56.748;13.882;2023-07-31T05:58:28;16.60;99.90
11385;DHT22;5747;56.748;13.882;2023-07-31T06:00:58;16.50;99.90
11385;DHT22;5747;56.748;13.882;2023-07-31T06:03:26;17.00;99.90
11385;DHT22;5747;56.748;13.882;2023-07-31T06:05:54;17.80;99.90
11385;DHT22;5747;56.748;13.882;2023-07-31T06:08:22;18.00;99.90
11385;DHT22;5747;56.748;13.882;2023-07-31T06:10:50;18.10;99.90
11385;DHT22;5747;56.748;13.882;2023-07-31T06:13:19;18.00;99.90
11385;DHT22;5747;56.748;13.882;2023-07-31T06:15:47;18.00;99.90
11385;DHT22;5747;56.748;13.882;2023-07-31T06:18:16;18.30;99.90
11385;DHT22;5747;56.748;13.882;2023-07-31T06:20:45;18.70;99.90
11385;DHT22;5747;56.748;13.882;2023-07-31T06:23:14;18.60;99.90
11385;DHT22;5747;56.748;13.882;2023-07-31T06:25:42;18.40;99.90
11385;DHT22;5747;56.748;13.882;2023-07-31T06:28:10;18.20;99.90
11385;DHT22;5747;56.748;13.882;2023-07-31T06:30:38;18.10;99.90
11385;DHT22;5747;56.748;13.882;2023-07-31T06:33:07;16.80;99.90
11385;DHT22;5747;56.748;13.882;2023-07-31T06:35:37;16.40;99.90
11385;DHT22;5747;56.748;13.882;2023-07-31T06:38:05;17.00;99.90
11385;DHT22;5747;56.748;13.882;2023-07-31T06:40:33;17.80;99.90
11385;DHT22;5747;56.748;13.882;2023-07-31T06:43:01;18.60;99.90
11385;DHT22;5747;56.748;13.882;2023-07-31T06:45:35;18.40;99.90
11385;DHT22;5747;56.748;13.882;2023-07-31T06:48:03;18.10;99.90
11385;DHT22;5747;56.748;13.882;2023-07-31T06:50:32;17.90;99.90
11385;DHT22;5747;56.748;13.882;2023-07-31T06:53:01;18.30;99.90
11385;DHT22;5747;56.748;13.882;2023-07-31T06:55:30;17.90;99.90
11385;DHT22;5747;56.748;13.882;2023-07-31T06:57:58;18.20;99.90
11385;DHT22;5747;56.748;13.882;2023-07-31T07:00:27;18.40;99.90
11385;DHT22;5747;56.748;13.882;2023-07-31T07:02:55;18.80;99.90
11385;DHT22;5747;56.748;13.882;2023-07-31T07:05:23;19.10;99.90
11385;DHT22;5747;56.748;13.882;2023-07-31T07:07:52;19.30;99.90
11385;DHT22;5747;56.748;13.882;2023-07-31T07:10:21;19.40;99.90
11385;DHT22;5747;56.748;13.882;2023-07-31T07:12:49;19.30;99.90
11385;DHT22;5747;56.748;13.882;2023-07-31T07:15:17;19.30;99.90
11385;DHT22;5747;56.748;13.882;2023-07-31T07:17:46;19.20;99.90
11385;DHT22;5747;56.748;13.882;2023-07-31T07:20:14;19.00;99.90
11385;DHT22;5747;56.748;13.882;2023-07-31T07:22:42;17.60;99.90
11385;DHT22;5747;56.748;13.882;2023-07-31T07:25:10;18.00;99.90
11385;DHT22;5747;56.748;13.882;2023-07-31T07:27:40;18.30;99.90
11385;DHT22;5747;56.748;13.882;2023-07-31T07:30:14;18.00;99.90
11385;DHT22;5747;56.748;13.882;2023-07-31T07:32:43;17.50;99.90
11385;DHT22;5747;56.748;13.882;2023-07-31T07:35:11;18.00;99.90
11385;DHT22;5747;56.748;13.882;2023-07-31T07:37:39;18.40;99.90
11385;DHT22;5747;56.748;13.882;2023-07-31T07:40:08;19.00;99.90
11385;DHT22;5747;56.748;13.882;2023-07-31T07:42:37;19.50;99.90
11385;DHT22;5747;56.748;13.882;2023-07-31T07:45:07;19.10;99.90
11385;DHT22;5747;56.748;13.882;2023-07-31T07:47:35;19.00;99.90
11385;DHT22;5747;56.748;13.882;2023-07-31T07:50:05;19.10;99.90
11385;DHT22;5747;56.748;13.882;2023-07-31T07:52:35;19.00;99.90
11385;DHT22;5747;56.748;13.882;2023-07-31T07:55:04;19.10;99.90
11385;DHT22;5747;56.748;13.882;2023-07-31T07:57:33;19.00;99.90
11385;DHT22;5747;56.748;13.882;2023-07-31T08:00:01;19.00;99.90
11385;DHT22;5747;56.748;13.882;2023-07-31T08:02:41;18.30;99.90
11385;DHT22;5747;56.748;13.882;2023-07-31T08:05:09;18.40;99.90
11385;DHT22;5747;56.748;13.882;2023-07-31T08:07:37;18.50;99.90
11385;DHT22;5747;56.748;13.882;2023-07-31T08:10:06;18.20;99.90
11385;DHT22;5747;56.748;13.882;2023-07-31T08:12:34;18.20;99.90
11385;DHT22;5747;56.748;13.882;2023-07-31T08:15:03;18.30;99.90
11385;DHT22;5747;56.748;13.882;2023-07-31T08:17:31;18.80;99.90
11385;DHT22;5747;56.748;13.882;2023-07-31T08:20:01;19.00;99.90
11385;DHT22;5747;56.748;13.882;2023-07-31T08:22:29;19.00;99.90
11385;DHT22;5747;56.748;13.882;2023-07-31T08:24:57;18.90;99.90
11385;DHT22;5747;56.748;13.882;2023-07-31T08:27:25;18.60;99.90
11385;DHT22;5747;56.748;13.882;2023-07-31T08:29:53;18.40;99.90
11385;DHT22;5747;56.748;13.882;2023-07-31T08:32:21;18.00;99.90
11385;DHT22;5747;56.748;13.882;2023-07-31T08:34:50;18.10;99.90
11385;DHT22;5747;56.748;13.882;2023-07-31T08:37:19;18.00;99.90
11385;DHT22;5747;56.748;13.882;2023-07-31T08:39:47;18.50;99.90
11385;DHT22;5747;56.748;13.882;2023-07-31T08:42:15;18.60;99.90
11385;DHT22;5747;56.748;13.882;2023-07-31T08:44:44;18.70;99.90
11385;DHT22;5747;56.748;13.882;2023-07-31T08:47:13;18.90;99.90
11385;DHT22;5747;56.748;13.882;2023-07-31T08:49:42;19.10;99.90
11385;DHT22;5747;56.748;13.882;2023-07-31T08:52:11;19.30;99.90
11385;DHT22;5747;56.748;13.882;2023-07-31T08:54:40;19.50;99.90
11385;DHT22;5747;56.748;13.882;2023-07-31T08:57:10;19.40;99.90
11385;DHT22;5747;56.748;13.882;2023-07-31T08:59:39;19.20;99.90
11385;DHT22;5747;56.748;13.882;2023-07-31T09:02:08;18.80;99.90
11385;DHT22;5747;56.748;13.882;2023-07-31T09:04:36;18.20;99.90
11385;DHT22;5747;56.748;13.882;2023-07-31T09:07:05;17.60;99.90
11385;DHT22;5747;56.748;13.882;2023-07-31T09:09:36;17.20;99.90
11385;DHT22;5747;56.748;13.882;2023-07-31T09:12:07;16.80;99.90
11385;DHT22;5747;56.748;13.882;2023-07-31T09:14:35;16.30;99.90
11385;DHT22;5747;56.748;13.882;2023-07-31T09:17:05;16.10;99.90
11385;DHT22;5747;56.748;13.882;2023-07-31T09:19:35;16.00;99.90
11385;DHT22;5747;56.748;13.882;2023-07-31T09:22:05;15.80;99.90
11385;DHT22;5747;56.748;13.882;2023-07-31T09:24:34;15.60;99.90
11385;DHT22;5747;56.748;13.882;2023-07-31T09:27:05;15.40;99.90
11385;DHT22;5747;56.748;13.882;2023-07-31T09:29:33;15.60;99.90
11385;DHT22;5747;56.748;13.882;2023-07-31T09:32:01;15.90;99.90
11385;DHT22;5747;56.748;13.882;2023-07-31T09:34:36;16.20;99.90
11385;DHT22;5747;56.748;13.882;2023-07-31T09:37:05;16.70;99.90
11385;DHT22;5747;56.748;13.882;2023-07-31T09:39:46;17.20;99.90
11385;DHT22;5747;56.748;13.882;2023-07-31T09:42:24;17.40;99.90
11385;DHT22;5747;56.748;13.882;2023-07-31T09:44:52;17.70;99.90
11385;DHT22;5747;56.748;13.882;2023-07-31T09:47:24;18.00;99.90
11385;DHT22;5747;56.748;13.882;2023-07-31T09:49:53;18.30;99.90
11385;DHT22;5747;56.748;13.882;2023-07-31T09:52:21;18.60;99.90
11385;DHT22;5747;56.748;13.882;2023-07-31T09:54:49;18.70;99.90
11385;DHT22;5747;56.748;13.882;2023-07-31T09:57:21;18.80;99.90
11385;DHT22;5747;56.748;13.882;2023-07-31T09:59:52;19.10;99.90
11385;DHT22;5747;56.748;13.882;2023-07-31T10:02:21;18.90;99.90
11385;DHT22;5747;56.748;13.882;2023-07-31T10:04:51;18.90;99.90
11385;DHT22;5747;56.748;13.882;2023-07-31T10:07:20;19.30;99.90
11385;DHT22;5747;56.748;13.882;2023-07-31T10:09:51;19.70;99.90
11385;DHT22;5747;56.748;13.882;2023-07-31T10:12:25;20.00;99.90
11385;DHT22;5747;56.748;13.882;2023-07-31T10:14:55;19.50;99.90
11385;DHT22;5747;56.748;13.882;2023-07-31T10:17:25;19.20;99.90
11385;DHT22;5747;56.748;13.882;2023-07-31T10:19:53;19.60;99.90
11385;DHT22;5747;56.748;13.882;2023-07-31T10:22:21;19.10;99.90
11385;DHT22;5747;56.748;13.882;2023-07-31T10:24:50;18.60;99.90
11385;DHT22;5747;56.748;13.882;2023-07-31T10:27:21;18.00;99.90
11385;DHT22;5747;56.748;13.882;2023-07-31T10:29:50;17.40;99.90
11385;DHT22;5747;56.748;13.882;2023-07-31T10:32:20;17.20;99.90
11385;DHT22;5747;56.748;13.882;2023-07-31T10:34:50;16.70;99.90
11385;DHT22;5747;56.748;13.882;2023-07-31T10:37:27;15.70;99.90
11385;DHT22;5747;56.748;13.882;2023-07-31T10:39:57;15.40;99.90
11385;DHT22;5747;56.748;13.882;2023-07-31T10:42:34;14.40;99.90
11385;DHT22;5747;56.748;13.882;2023-07-31T10:45:04;14.10;99.90
11385;DHT22;5747;56.748;13.882;2023-07-31T10:47:37;13.90;99.90
11385;DHT22;5747;56.748;13.882;2023-07-31T10:50:15;13.90;99.90
11385;DHT22;5747;56.748;13.882;2023-07-31T10:52:47;14.10;99.90
11385;DHT22;5747;56.748;13.882;2023-07-31T10:55:26;14.00;99.90
11385;DHT22;5747;56.748;13.882;2023-07-31T10:57:57;13.80;99.90
11385;DHT22;5747;56.748;13.882;2023-07-31T11:00:27;13.70;99.90
11385;DHT22;5747;56.748;13.882;2023-07-31T11:03:03;13.70;99.90
11385;DHT22;5747;56.748;13.882;2023-07-31T11:05:52;13.90;99.90
11385;DHT22;5747;56.748;13.882;2023-07-31T11:08:22;13.90;99.90
11385;DHT22;5747;56.748;13.882;2023-07-31T11:11:05;13.90;99.90
11385;DHT22;5747;56.748;13.882;2023-07-31T11:13:43;14.00;99.90
11385;DHT22;5747;56.748;13.882;2023-07-31T11:16:12;13.90;99.90
11385;DHT22;5747;56.748;13.882;2023-07-31T11:18:42;14.00;99.90
11385;DHT22;5747;56.748;13.882;2023-07-31T11:21:12;14.10;99.90
11385;DHT22;5747;56.748;13.882;2023-07-31T11:23:41;14.10;99.90
11385;DHT22;5747;56.748;13.882;2023-07-31T11:26:09;14.20;99.90
11385;DHT22;5747;56.748;13.882;2023-07-31T11:28:39;14.20;99.90
11385;DHT22;5747;56.748;13.882;2023-07-31T11:31:10;14.10;99.90
11385;DHT22;5747;56.748;13.882;2023-07-31T11:33:38;14.00;99.90
11385;DHT22;5747;56.748;13.882;2023-07-31T11:36:11;14.00;99.90
11385;DHT22;5747;56.748;13.882;2023-07-31T11:38:41;13.90;99.90
11385;DHT22;5747;56.748;13.882;2023-07-31T11:41:09;14.10;99.90
11385;DHT22;5747;56.748;13.882;2023-07-31T11:43:38;14.30;99.90
11385;DHT22;5747;56.748;13.882;2023-07-31T11:46:07;14.40;99.90
11385;DHT22;5747;56.748;13.882;2023-07-31T11:48:37;14.60;99.90
11385;DHT22;5747;56.748;13.882;2023-07-31T11:51:08;14.70;99.90
11385;DHT22;5747;56.748;13.882;2023-07-31T11:53:41;14.80;99.90
11385;DHT22;5747;56.748;13.882;2023-07-31T11:56:13;15.20;99.90
11385;DHT22;5747;56.748;13.882;2023-07-31T11:58:43;15.50;99.90
11385;DHT22;5747;56.748;13.882;2023-07-31T12:01:14;15.90;99.90
11385;DHT22;5747;56.748;13.882;2023-07-31T12:03:44;16.20;99.90
11385;DHT22;5747;56.748;13.882;2023-07-31T12:06:13;16.40;99.90
11385;DHT22;5747;56.748;13.882;2023-07-31T12:08:41;16.70;99.90
11385;DHT22;5747;56.748;13.882;2023-07-31T12:11:09;16.50;99.90
11385;DHT22;5747;56.748;13.882;2023-07-31T12:13:38;16.70;99.90
11385;DHT22;5747;56.748;13.882;2023-07-31T12:16:06;17.20;99.90
11385;DHT22;5747;56.748;13.882;2023-07-31T12:18:37;17.70;99.90
11385;DHT22;5747;56.748;13.882;2023-07-31T12:21:07;17.80;99.90
11385;DHT22;5747;56.748;13.882;2023-07-31T12:23:37;18.00;99.90
11385;DHT22;5747;56.748;13.882;2023-07-31T12:26:09;18.10;99.90
11385;DHT22;5747;56.748;13.882;2023-07-31T12:28:38;18.10;99.90
11385;DHT22;5747;56.748;13.882;2023-07-31T12:31:08;18.10;99.90
11385;DHT22;5747;56.748;13.882;2023-07-31T12:33:40;18.20;99.90
11385;DHT22;5747;56.748;13.882;2023-07-31T12:36:10;18.20;99.90
11385;DHT22;5747;56.748;13.882;2023-07-31T12:38:38;18.30;99.90
11385;DHT22;5747;56.748;13.882;2023-07-31T12:41:06;18.20;99.90
11385;DHT22;5747;56.748;13.882;2023-07-31T12:43:35;18.20;99.90
11385;DHT22;5747;56.748;13.882;2023-07-31T12:46:05;18.30;99.90
11385;DHT22;5747;56.748;13.882;2023-07-31T12:48:34;18.40;99.90
11385;DHT22;5747;56.748;13.882;2023-07-31T12:51:04;18.30;99.90
11385;DHT22;5747;56.748;13.882;2023-07-31T12:53:33;18.20;99.90
11385;DHT22;5747;56.748;13.882;2023-07-31T12:56:02;18.40;99.90
11385;DHT22;5747;56.748;13.882;2023-07-31T12:58:30;18.40;99.90
11385;DHT22;5747;56.748;13.882;2023-07-31T13:00:58;18.40;99.90
11385;DHT22;5747;56.748;13.882;2023-07-31T13:03:26;18.40;99.90
11385;DHT22;5747;56.748;13.882;2023-07-31T13:05:55;18.20;99.90
11385;DHT22;5747;56.748;13.882;2023-07-31T13:08:24;17.90;99.90
11385;DHT22;5747;56.748;13.882;2023-07-31T13:10:52;17.70;99.90
11385;DHT22;5747;56.748;13.882;2023-07-31T13:13:20;17.40;99.90
11385;DHT22;5747;56.748;13.882;2023-07-31T13:15:49;17.30;99.90
11385;DHT22;5747;56.748;13.882;2023-07-31T13:18:17;17.00;99.90
11385;DHT22;5747;56.748;13.882;2023-07-31T13:20:46;17.20;99.90
11385;DHT22;5747;56.748;13.882;2023-07-31T13:23:14;17.60;99.90
11385;DHT22;5747;56.748;13.882;2023-07-31T13:25:44;18.00;99.90
11385;DHT22;5747;56.748;13.882;2023-07-31T13:28:12;18.50;99.90
11385;DHT22;5747;56.748;13.882;2023-07-31T13:30:41;18.80;99.90
11385;DHT22;5747;56.748;13.882;2023-07-31T13:33:09;18.80;99.90
11385;DHT22;5747;56.748;13.882;2023-07-31T13:35:57;18.60;99.90
11385;DHT22;5747;56.748;13.882;2023-07-31T13:38:25;18.50;99.90
11385;DHT22;5747;56.748;13.882;2023-07-31T13:40:55;18.40;99.90
11385;DHT22;5747;56.748;13.882;2023-07-31T13:43:23;18.10;99.90
11385;DHT22;5747;56.748;13.882;2023-07-31T13:45:51;17.70;99.90
11385;DHT22;5747;56.748;13.882;2023-07-31T13:48:19;17.70;99.90
11385;DHT22;5747;56.748;13.882;2023-07-31T13:50:48;18.10;99.90
11385;DHT22;5747;56.748;13.882;2023-07-31T13:53:16;18.40;99.90
11385;DHT22;5747;56.748;13.882;2023-07-31T13:55:44;18.70;99.90
11385;DHT22;5747;56.748;13.882;2023-07-31T13:58:14;18.80;99.90
11385;DHT22;5747;56.748;13.882;2023-07-31T14:00:42;18.80;99.90
11385;DHT22;5747;56.748;13.882;2023-07-31T14:03:10;18.70;99.90
11385;DHT22;5747;56.748;13.882;2023-07-31T14:05:38;18.70;99.90
11385;DHT22;5747;56.748;13.882;2023-07-31T14:08:06;18.60;99.90
11385;DHT22;5747;56.748;13.882;2023-07-31T14:10:35;17.70;99.90
11385;DHT22;5747;56.748;13.882;2023-07-31T14:13:03;17.00;99.90
11385;DHT22;5747;56.748;13.882;2023-07-31T14:15:32;16.90;99.90
11385;DHT22;5747;56.748;13.882;2023-07-31T14:18:02;16.90;99.90
11385;DHT22;5747;56.748;13.882;2023-07-31T14:20:31;17.00;99.90
11385;DHT22;5747;56.748;13.882;2023-07-31T14:22:59;17.10;99.90
11385;DHT22;5747;56.748;13.882;2023-07-31T14:25:27;17.20;99.90
11385;DHT22;5747;56.748;13.882;2023-07-31T14:27:56;17.40;99.90
11385;DHT22;5747;56.748;13.882;2023-07-31T14:30:24;17.50;99.90
11385;DHT22;5747;56.748;13.882;2023-07-31T14:32:54;17.60;99.90
11385;DHT22;5747;56.748;13.882;2023-07-31T14:35:23;17.80;99.90
11385;DHT22;5747;56.748;13.882;2023-07-31T14:37:51;17.80;99.90
11385;DHT22;5747;56.748;13.882;2023-07-31T14:40:19;17.90;99.90
11385;DHT22;5747;56.748;13.882;2023-07-31T14:42:47;18.50;99.90
11385;DHT22;5747;56.748;13.882;2023-07-31T14:45:15;18.80;99.90
11385;DHT22;5747;56.748;13.882;2023-07-31T14:47:43;18.80;99.90
11385;DHT22;5747;56.748;13.882;2023-07-31T14:50:13;18.80;99.90
11385;DHT22;5747;56.748;13.882;2023-07-31T14:52:41;19.10;99.90
11385;DHT22;5747;56.748;13.882;2023-07-31T14:55:09;19.10;99.90
11385;DHT22;5747;56.748;13.882;2023-07-31T14:57:37;18.80;99.90
11385;DHT22;5747;56.748;13.882;2023-07-31T15:00:06;18.40;99.90
11385;DHT22;5747;56.748;13.882;2023-07-31T15:02:35;17.70;99.90
11385;DHT22;5747;56.748;13.882;2023-07-31T15:05:04;16.90;99.90
11385;DHT22;5747;56.748;13.882;2023-07-31T15:07:34;17.10;99.90
11385;DHT22;5747;56.748;13.882;2023-07-31T15:10:03;17.40;99.90
11385;DHT22;5747;56.748;13.882;2023-07-31T15:12:32;17.80;99.90
11385;DHT22;5747;56.748;13.882;2023-07-31T15:15:00;18.10;99.90
11385;DHT22;5747;56.748;13.882;2023-07-31T15:17:28;18.30;99.90
11385;DHT22;5747;56.748;13.882;2023-07-31T15:19:57;18.40;99.90
11385;DHT22;5747;56.748;13.882;2023-07-31T15:22:28;18.50;99.90
11385;DHT22;5747;56.748;13.882;2023-07-31T15:24:58;18.50;99.90
11385;DHT22;5747;56.748;13.882;2023-07-31T15:27:26;18.60;99.90
11385;DHT22;5747;56.748;13.882;2023-07-31T15:29:54;18.70;99.90
11385;DHT22;5747;56.748;13.882;2023-07-31T15:32:23;18.90;99.90
11385;DHT22;5747;56.748;13.882;2023-07-31T15:34:51;19.00;99.90
11385;DHT22;5747;56.748;13.882;2023-07-31T15:37:19;18.90;99.90
11385;DHT22;5747;56.748;13.882;2023-07-31T15:39:47;19.10;99.90
11385;DHT22;5747;56.748;13.882;2023-07-31T15:42:17;19.10;99.90